Time,TemperatureF,DewpointF,PressureIn,WindDirection,WindDirectionDegrees,WindSpeedMPH,WindSpeedGustMPH,Humidity,HourlyPrecipIn,Conditions,Clouds,dailyrainin,SoftwareType,DateUTC
2013-10-13 00:03:00,-999.0,-99.9,30.51,SSW,202,0.0,3.0,-999,-99.99,,,-99.99,,2013-10-13 04:03:00,
2013-10-13 01:43:00,36.0,34.0,30.53,SW,225,0.0,3.0,91,-99.99,,,0.00,,2013-10-13 05:43:00,
2013-10-13 01:52:00,36.0,34.0,30.53,SW,225,0.0,3.0,91,-99.99,,,0.00,,2013-10-13 05:52:00,
2013-10-13 02:02:00,36.0,34.0,30.53,SW,225,0.0,3.0,91,-99.99,,,0.00,,2013-10-13 06:02:00,
2013-10-13 02:42:00,36.0,33.0,30.53,SW,225,0.0,3.0,88,-99.99,,,0.00,,2013-10-13 06:42:00,
2013-10-13 02:52:00,36.0,33.0,30.53,SW,225,0.0,3.0,88,-99.99,,,0.00,,2013-10-13 06:52:00,
2013-10-13 03:02:00,36.0,33.0,30.53,SW,225,0.0,3.0,88,-99.99,,,0.00,,2013-10-13 07:02:00,
2013-10-13 03:42:00,36.0,33.0,30.54,WSW,247,0.0,4.0,89,-99.99,,,0.00,,2013-10-13 07:42:00,
2013-10-13 03:52:00,36.0,33.0,30.54,WSW,247,0.0,4.0,89,-99.99,,,0.00,,2013-10-13 07:52:00,
2013-10-13 04:02:00,36.0,33.0,30.54,WSW,247,0.0,4.0,89,-99.99,,,0.00,,2013-10-13 08:02:00,
2013-10-13 04:42:00,35.0,33.0,30.55,South,180,4.0,6.0,91,-99.99,,,0.00,,2013-10-13 08:42:00,
2013-10-13 04:52:00,35.0,33.0,30.55,South,180,4.0,6.0,91,-99.99,,,0.00,,2013-10-13 08:52:00,
2013-10-13 05:02:00,35.0,33.0,30.55,South,180,4.0,6.0,91,-99.99,,,0.00,,2013-10-13 09:02:00,
2013-10-13 05:53:00,33.0,24.0,30.56,SSW,202,2.0,5.0,70,-99.99,,,0.00,,2013-10-13 09:53:00,
2013-10-13 06:03:00,33.0,24.0,30.56,SSW,202,2.0,5.0,70,-99.99,,,0.00,,2013-10-13 10:03:00,
2013-10-13 06:43:00,32.0,23.0,30.57,SSW,202,3.0,5.0,70,-99.99,,,0.00,,2013-10-13 10:43:00,
2013-10-13 06:53:00,32.0,23.0,30.57,SSW,202,3.0,5.0,70,-99.99,,,0.00,,2013-10-13 10:53:00,
2013-10-13 07:03:00,32.0,23.0,30.57,SSW,202,3.0,5.0,70,-99.99,,,0.00,,2013-10-13 11:03:00,
2013-10-13 07:42:00,32.0,22.0,30.58,SSW,202,3.0,5.0,66,-99.99,,,0.00,,2013-10-13 11:42:00,
2013-10-13 07:52:00,32.0,22.0,30.58,SSW,202,3.0,5.0,66,-99.99,,,0.00,,2013-10-13 11:52:00,
2013-10-13 08:02:00,32.0,22.0,30.58,SSW,202,3.0,5.0,66,-99.99,,,0.00,,2013-10-13 12:02:00,
2013-10-13 08:42:00,33.0,25.0,30.59,SW,225,4.0,6.0,73,-99.99,,,0.00,,2013-10-13 12:42:00,
2013-10-13 08:52:00,33.0,25.0,30.59,SW,225,4.0,6.0,73,-99.99,,,0.00,,2013-10-13 12:52:00,
2013-10-13 09:02:00,33.0,25.0,30.59,SW,225,4.0,6.0,73,-99.99,,,0.00,,2013-10-13 13:02:00,
2013-10-13 09:52:00,35.0,27.0,30.59,West,270,4.0,6.0,72,-99.99,,,0.00,,2013-10-13 13:52:00,
2013-10-13 10:02:00,35.0,27.0,30.59,West,270,4.0,6.0,72,-99.99,,,0.00,,2013-10-13 14:02:00,
2013-10-13 11:54:00,51.0,38.0,30.57,NW,315,1.0,7.0,60,-99.99,,,0.00,,2013-10-13 15:54:00,
2013-10-13 12:03:00,51.0,38.0,30.57,NW,315,1.0,7.0,60,-99.99,,,0.00,,2013-10-13 16:03:00,
2013-10-13 12:43:00,51.0,34.0,30.55,NNW,337,5.0,6.0,52,-99.99,,,0.00,,2013-10-13 16:43:00,
2013-10-13 12:54:00,51.0,34.0,30.55,NNW,337,5.0,6.0,52,-99.99,,,0.00,,2013-10-13 16:54:00,
2013-10-13 13:03:00,51.0,34.0,30.55,NNW,337,5.0,6.0,52,-99.99,,,0.00,,2013-10-13 17:03:00,
2013-10-13 14:52:00,59.0,52.0,30.43,West,270,1.0,10.0,79,-99.99,,,0.00,,2013-10-13 18:52:00,
2013-10-13 15:02:00,59.0,52.0,30.43,West,270,1.0,10.0,79,-99.99,,,0.00,,2013-10-13 19:02:00,
2013-10-13 16:52:00,60.0,51.0,30.38,ESE,112,4.0,10.0,72,-99.99,,,0.00,,2013-10-13 20:52:00,
2013-10-13 17:03:00,60.0,51.0,30.38,ESE,112,4.0,10.0,72,-99.99,,,0.00,,2013-10-13 21:03:00,
2013-10-13 17:04:00,58.0,52.0,30.39,East,90,6.0,10.0,79,-99.99,,,0.00,,2013-10-13 21:04:00,
2013-10-13 17:44:00,58.0,52.0,30.39,East,90,6.0,10.0,79,-99.99,,,0.00,,2013-10-13 21:44:00,
2013-10-13 17:55:00,58.0,52.0,30.39,East,90,6.0,10.0,79,-99.99,,,0.00,,2013-10-13 21:55:00,
2013-10-13 18:53:00,54.0,46.0,30.39,ESE,112,3.0,10.0,74,-99.99,,,0.00,,2013-10-13 22:53:00,
2013-10-13 19:03:00,54.0,46.0,30.39,ESE,112,3.0,10.0,74,-99.99,,,0.00,,2013-10-13 23:03:00,
2013-10-13 21:52:00,43.0,37.0,30.41,SE,135,1.0,6.0,79,-99.99,,,0.00,,2013-10-14 01:52:00,
2013-10-13 22:02:00,43.0,37.0,30.41,SE,135,1.0,6.0,79,-99.99,,,0.00,,2013-10-14 02:02:00,
2013-10-13 22:42:00,41.0,35.0,30.40,ESE,112,4.0,6.0,80,-99.99,,,0.00,,2013-10-14 02:42:00,
2013-10-13 22:52:00,41.0,35.0,30.40,ESE,112,4.0,6.0,80,-99.99,,,0.00,,2013-10-14 02:52:00,
2013-10-13 23:03:00,41.0,35.0,30.40,ESE,112,4.0,6.0,80,-99.99,,,0.00,,2013-10-14 03:03:00,
2013-10-13 23:04:00,39.0,36.0,30.39,East,90,6.0,7.0,88,-99.99,,,0.00,,2013-10-14 03:04:00,
2013-10-13 23:44:00,39.0,36.0,30.39,East,90,6.0,7.0,88,-99.99,,,0.00,,2013-10-14 03:44:00,
2013-10-13 23:55:00,39.0,36.0,30.39,East,90,6.0,7.0,88,-99.99,,,0.00,,2013-10-14 03:55:00,